sensor_id;sensor_type;location;lat;lon;timestamp;temperature;humidity
28071;DHT22;15383;48.408;9.968;2023-04-19T00:00:42;20.10;79.40
28071;DHT22;15383;48.408;9.968;2023-04-19T00:03:10;20.10;79.30
28071;DHT22;15383;48.408;9.968;2023-04-19T00:05:36;20.10;79.40
28071;DHT22;15383;48.408;9.968;2023-04-19T00:08:03;20.10;79.40
28071;DHT22;15383;48.408;9.968;2023-04-19T00:10:29;20.10;79.30
28071;DHT22;15383;48.408;9.968;2023-04-19T00:12:54;20.10;79.30
28071;DHT22;15383;48.408;9.968;2023-04-19T00:15:20;20.10;79.30
28071;DHT22;15383;48.408;9.968;2023-04-19T00:17:45;20.10;79.30
28071;DHT22;15383;48.408;9.968;2023-04-19T00:20:11;20.10;79.30
28071;DHT22;15383;48.408;9.968;2023-04-19T00:22:38;20.10;79.30
28071;DHT22;15383;48.408;9.968;2023-04-19T00:25:04;20.10;79.30
28071;DHT22;15383;48.408;9.968;2023-04-19T00:27:30;20.10;79.30
28071;DHT22;15383;48.408;9.968;2023-04-19T00:29:55;20.10;79.30
28071;DHT22;15383;48.408;9.968;2023-04-19T00:32:22;20.00;79.30
28071;DHT22;15383;48.408;9.968;2023-04-19T00:34:47;20.10;79.30
28071;DHT22;15383;48.408;9.968;2023-04-19T00:37:13;20.10;79.30
28071;DHT22;15383;48.408;9.968;2023-04-19T00:39:39;20.00;79.20
28071;DHT22;15383;48.408;9.968;2023-04-19T00:42:04;20.00;79.20
28071;DHT22;15383;48.408;9.968;2023-04-19T00:44:30;20.10;79.30
28071;DHT22;15383;48.408;9.968;2023-04-19T00:46:56;20.00;79.20
28071;DHT22;15383;48.408;9.968;2023-04-19T00:49:22;20.00;79.20
28071;DHT22;15383;48.408;9.968;2023-04-19T00:51:49;20.00;79.20
28071;DHT22;15383;48.408;9.968;2023-04-19T00:54:15;20.00;79.30
28071;DHT22;15383;48.408;9.968;2023-04-19T00:56:42;20.00;79.30
28071;DHT22;15383;48.408;9.968;2023-04-19T00:59:08;20.00;79.30
28071;DHT22;15383;48.408;9.968;2023-04-19T01:01:34;20.00;79.30
28071;DHT22;15383;48.408;9.968;2023-04-19T01:04:00;20.00;79.20
28071;DHT22;15383;48.408;9.968;2023-04-19T01:06:27;20.00;79.20
28071;DHT22;15383;48.408;9.968;2023-04-19T01:08:54;20.00;79.20
28071;DHT22;15383;48.408;9.968;2023-04-19T01:11:21;20.00;79.20
28071;DHT22;15383;48.408;9.968;2023-04-19T01:13:47;20.00;79.20
28071;DHT22;15383;48.408;9.968;2023-04-19T01:16:12;20.00;79.10
28071;DHT22;15383;48.408;9.968;2023-04-19T01:18:38;20.00;79.20
28071;DHT22;15383;48.408;9.968;2023-04-19T01:21:05;19.90;79.00
28071;DHT22;15383;48.408;9.968;2023-04-19T01:23:31;20.00;79.20
28071;DHT22;15383;48.408;9.968;2023-04-19T01:25:57;19.90;79.10
28071;DHT22;15383;48.408;9.968;2023-04-19T01:28:22;19.90;79.10
28071;DHT22;15383;48.408;9.968;2023-04-19T01:30:48;20.00;79.20
28071;DHT22;15383;48.408;9.968;2023-04-19T01:33:18;20.00;79.20
28071;DHT22;15383;48.408;9.968;2023-04-19T01:35:44;20.00;79.20
28071;DHT22;15383;48.408;9.968;2023-04-19T01:38:09;20.00;79.20
28071;DHT22;15383;48.408;9.968;2023-04-19T01:40:35;19.90;79.20
28071;DHT22;15383;48.408;9.968;2023-04-19T01:43:00;19.90;79.20
28071;DHT22;15383;48.408;9.968;2023-04-19T01:45:26;19.90;79.30
28071;DHT22;15383;48.408;9.968;2023-04-19T01:47:51;19.90;79.20
28071;DHT22;15383;48.408;9.968;2023-04-19T01:50:17;19.90;79.20
28071;DHT22;15383;48.408;9.968;2023-04-19T01:52:43;19.90;79.20
28071;DHT22;15383;48.408;9.968;2023-04-19T01:55:08;19.90;79.20
28071;DHT22;15383;48.408;9.968;2023-04-19T01:57:34;19.90;79.10
28071;DHT22;15383;48.408;9.968;2023-04-19T02:00:00;19.90;79.20
28071;DHT22;15383;48.408;9.968;2023-04-19T02:02:26;19.90;79.10
28071;DHT22;15383;48.408;9.968;2023-04-19T02:04:52;19.90;79.10
28071;DHT22;15383;48.408;9.968;2023-04-19T02:07:17;19.90;79.00
28071;DHT22;15383;48.408;9.968;2023-04-19T02:09:43;19.90;79.00
28071;DHT22;15383;48.408;9.968;2023-04-19T02:12:08;19.90;79.10
28071;DHT22;15383;48.408;9.968;2023-04-19T02:14:34;19.90;79.20
28071;DHT22;15383;48.408;9.968;2023-04-19T02:17:00;19.90;79.10
28071;DHT22;15383;48.408;9.968;2023-04-19T02:19:25;19.90;79.10
28071;DHT22;15383;48.408;9.968;2023-04-19T02:21:51;19.90;79.10
28071;DHT22;15383;48.408;9.968;2023-04-19T02:24:17;19.90;79.10
28071;DHT22;15383;48.408;9.968;2023-04-19T02:26:43;19.90;79.10
28071;DHT22;15383;48.408;9.968;2023-04-19T02:29:09;19.90;79.00
28071;DHT22;15383;48.408;9.968;2023-04-19T02:31:35;19.80;79.10
28071;DHT22;15383;48.408;9.968;2023-04-19T02:34:01;19.80;79.00
28071;DHT22;15383;48.408;9.968;2023-04-19T02:36:26;19.80;79.00
28071;DHT22;15383;48.408;9.968;2023-04-19T02:38:52;19.90;79.00
28071;DHT22;15383;48.408;9.968;2023-04-19T02:41:17;19.80;78.90
28071;DHT22;15383;48.408;9.968;2023-04-19T02:43:43;19.80;79.00
28071;DHT22;15383;48.408;9.968;2023-04-19T02:46:09;19.80;79.00
28071;DHT22;15383;48.408;9.968;2023-04-19T02:48:34;19.80;79.10
28071;DHT22;15383;48.408;9.968;2023-04-19T02:51:00;19.80;79.00
28071;DHT22;15383;48.408;9.968;2023-04-19T02:53:26;19.80;79.00
28071;DHT22;15383;48.408;9.968;2023-04-19T02:55:51;19.80;79.00
28071;DHT22;15383;48.408;9.968;2023-04-19T02:58:17;19.80;79.00
28071;DHT22;15383;48.408;9.968;2023-04-19T03:00:43;19.80;79.00
28071;DHT22;15383;48.408;9.968;2023-04-19T03:03:08;19.80;78.90
28071;DHT22;15383;48.408;9.968;2023-04-19T03:05:34;19.80;78.90
28071;DHT22;15383;48.408;9.968;2023-04-19T03:07:59;19.80;78.90
28071;DHT22;15383;48.408;9.968;2023-04-19T03:10:25;19.80;78.90
28071;DHT22;15383;48.408;9.968;2023-04-19T03:12:50;19.80;79.00
28071;DHT22;15383;48.408;9.968;2023-04-19T03:15:18;19.80;78.90
28071;DHT22;15383;48.408;9.968;2023-04-19T03:17:44;19.80;78.90
28071;DHT22;15383;48.408;9.968;2023-04-19T03:20:10;19.80;78.90
28071;DHT22;15383;48.408;9.968;2023-04-19T03:22:37;19.80;78.90
28071;DHT22;15383;48.408;9.968;2023-04-19T03:25:03;19.80;78.80
28071;DHT22;15383;48.408;9.968;2023-04-19T03:27:29;19.80;78.90
28071;DHT22;15383;48.408;9.968;2023-04-19T03:29:55;19.70;78.80
28071;DHT22;15383;48.408;9.968;2023-04-19T03:32:21;19.70;78.80
28071;DHT22;15383;48.408;9.968;2023-04-19T03:34:46;19.70;78.80
28071;DHT22;15383;48.408;9.968;2023-04-19T03:37:12;19.70;78.80
28071;DHT22;15383;48.408;9.968;2023-04-19T03:39:38;19.80;78.90
28071;DHT22;15383;48.408;9.968;2023-04-19T03:42:03;19.70;78.80
28071;DHT22;15383;48.408;9.968;2023-04-19T03:44:32;19.80;78.90
28071;DHT22;15383;48.408;9.968;2023-04-19T03:46:58;19.80;78.90
28071;DHT22;15383;48.408;9.968;2023-04-19T03:49:24;19.80;78.90
28071;DHT22;15383;48.408;9.968;2023-04-19T03:51:49;19.80;78.90
28071;DHT22;15383;48.408;9.968;2023-04-19T03:54:15;19.90;78.80
28071;DHT22;15383;48.408;9.968;2023-04-19T03:56:41;19.90;78.70
28071;DHT22;15383;48.408;9.968;2023-04-19T03:59:06;19.90;78.70
28071;DHT22;15383;48.408;9.968;2023-04-19T04:01:32;19.90;78.70
28071;DHT22;15383;48.408;9.968;2023-04-19T04:03:57;19.90;78.70
28071;DHT22;15383;48.408;9.968;2023-04-19T04:06:23;19.90;78.70
28071;DHT22;15383;48.408;9.968;2023-04-19T04:08:48;20.00;78.70
28071;DHT22;15383;48.408;9.968;2023-04-19T04:11:14;19.90;78.70
28071;DHT22;15383;48.408;9.968;2023-04-19T04:13:40;20.00;78.70
28071;DHT22;15383;48.408;9.968;2023-04-19T04:16:05;20.00;78.80
28071;DHT22;15383;48.408;9.968;2023-04-19T04:18:31;20.00;78.70
28071;DHT22;15383;48.408;9.968;2023-04-19T04:20:56;20.00;78.70
28071;DHT22;15383;48.408;9.968;2023-04-19T04:23:23;20.00;78.70
28071;DHT22;15383;48.408;9.968;2023-04-19T04:25:59;20.10;78.80
28071;DHT22;15383;48.408;9.968;2023-04-19T04:28:26;20.10;78.80
28071;DHT22;15383;48.408;9.968;2023-04-19T04:30:53;20.00;78.80
28071;DHT22;15383;48.408;9.968;2023-04-19T04:33:25;20.10;78.80
28071;DHT22;15383;48.408;9.968;2023-04-19T04:35:51;20.10;79.30
28071;DHT22;15383;48.408;9.968;2023-04-19T04:38:18;20.20;79.10
28071;DHT22;15383;48.408;9.968;2023-04-19T04:40:47;20.20;79.30
28071;DHT22;15383;48.408;9.968;2023-04-19T04:43:13;20.10;79.10
28071;DHT22;15383;48.408;9.968;2023-04-19T04:45:38;20.20;79.00
28071;DHT22;15383;48.408;9.968;2023-04-19T04:48:04;20.20;78.70
28071;DHT22;15383;48.408;9.968;2023-04-19T04:50:30;20.30;78.50
28071;DHT22;15383;48.408;9.968;2023-04-19T04:52:55;20.40;78.40
28071;DHT22;15383;48.408;9.968;2023-04-19T04:55:21;20.40;78.20
28071;DHT22;15383;48.408;9.968;2023-04-19T04:57:47;20.40;78.10
28071;DHT22;15383;48.408;9.968;2023-04-19T05:00:12;20.50;78.00
28071;DHT22;15383;48.408;9.968;2023-04-19T05:02:38;20.50;77.90
28071;DHT22;15383;48.408;9.968;2023-04-19T05:05:04;20.50;77.80
28071;DHT22;15383;48.408;9.968;2023-04-19T05:07:29;20.50;77.70
28071;DHT22;15383;48.408;9.968;2023-04-19T05:09:55;20.50;77.70
28071;DHT22;15383;48.408;9.968;2023-04-19T05:12:20;20.50;77.70
28071;DHT22;15383;48.408;9.968;2023-04-19T05:14:46;20.50;77.80
28071;DHT22;15383;48.408;9.968;2023-04-19T05:17:11;20.50;77.80
28071;DHT22;15383;48.408;9.968;2023-04-19T05:19:37;20.50;77.70
28071;DHT22;15383;48.408;9.968;2023-04-19T05:22:02;20.50;77.60
28071;DHT22;15383;48.408;9.968;2023-04-19T05:24:28;20.60;77.60
28071;DHT22;15383;48.408;9.968;2023-04-19T05:26:54;20.60;77.80
28071;DHT22;15383;48.408;9.968;2023-04-19T05:29:19;20.60;77.70
28071;DHT22;15383;48.408;9.968;2023-04-19T05:31:45;20.60;77.80
28071;DHT22;15383;48.408;9.968;2023-04-19T05:34:10;20.70;78.80
28071;DHT22;15383;48.408;9.968;2023-04-19T05:36:36;20.90;78.30
28071;DHT22;15383;48.408;9.968;2023-04-19T05:39:01;20.90;78.20
28071;DHT22;15383;48.408;9.968;2023-04-19T05:41:27;21.00;78.20
28071;DHT22;15383;48.408;9.968;2023-04-19T05:43:52;21.00;78.30
28071;DHT22;15383;48.408;9.968;2023-04-19T05:46:18;21.00;78.30
28071;DHT22;15383;48.408;9.968;2023-04-19T05:48:43;21.10;78.30
28071;DHT22;15383;48.408;9.968;2023-04-19T05:51:09;21.10;78.40
28071;DHT22;15383;48.408;9.968;2023-04-19T05:53:34;21.10;78.30
28071;DHT22;15383;48.408;9.968;2023-04-19T05:56:00;21.10;78.30
28071;DHT22;15383;48.408;9.968;2023-04-19T05:58:26;21.20;78.30
28071;DHT22;15383;48.408;9.968;2023-04-19T06:00:51;21.20;78.20
28071;DHT22;15383;48.408;9.968;2023-04-19T06:03:17;21.20;78.10
28071;DHT22;15383;48.408;9.968;2023-04-19T06:05:42;21.20;78.10
28071;DHT22;15383;48.408;9.968;2023-04-19T06:08:08;21.30;78.30
28071;DHT22;15383;48.408;9.968;2023-04-19T06:10:34;21.30;78.40
28071;DHT22;15383;48.408;9.968;2023-04-19T06:13:00;21.30;78.30
28071;DHT22;15383;48.408;9.968;2023-04-19T06:15:26;21.30;78.20
28071;DHT22;15383;48.408;9.968;2023-04-19T06:17:52;21.30;78.60
28071;DHT22;15383;48.408;9.968;2023-04-19T06:20:17;21.40;78.10
28071;DHT22;15383;48.408;9.968;2023-04-19T06:22:47;21.40;77.90
28071;DHT22;15383;48.408;9.968;2023-04-19T06:25:13;21.40;77.90
28071;DHT22;15383;48.408;9.968;2023-04-19T06:27:39;21.50;77.90
28071;DHT22;15383;48.408;9.968;2023-04-19T06:30:05;21.50;77.90
28071;DHT22;15383;48.408;9.968;2023-04-19T06:32:31;21.50;77.90
28071;DHT22;15383;48.408;9.968;2023-04-19T06:34:56;21.60;77.70
28071;DHT22;15383;48.408;9.968;2023-04-19T06:37:22;21.50;76.20
28071;DHT22;15383;48.408;9.968;2023-04-19T06:39:48;21.30;77.00
28071;DHT22;15383;48.408;9.968;2023-04-19T06:42:13;21.30;76.00
28071;DHT22;15383;48.408;9.968;2023-04-19T06:44:39;21.20;76.60
28071;DHT22;15383;48.408;9.968;2023-04-19T06:47:05;21.20;75.70
28071;DHT22;15383;48.408;9.968;2023-04-19T06:49:30;21.10;76.00
28071;DHT22;15383;48.408;9.968;2023-04-19T06:51:57;21.10;76.00
28071;DHT22;15383;48.408;9.968;2023-04-19T06:54:22;21.00;76.10
28071;DHT22;15383;48.408;9.968;2023-04-19T06:56:49;21.00;76.20
28071;DHT22;15383;48.408;9.968;2023-04-19T06:59:16;21.00;76.20
28071;DHT22;15383;48.408;9.968;2023-04-19T07:01:44;21.00;76.30
28071;DHT22;15383;48.408;9.968;2023-04-19T07:04:10;21.00;76.50
28071;DHT22;15383;48.408;9.968;2023-04-19T07:06:36;21.00;75.30
28071;DHT22;15383;48.408;9.968;2023-04-19T07:09:03;20.90;74.50
28071;DHT22;15383;48.408;9.968;2023-04-19T07:11:29;20.90;74.90
28071;DHT22;15383;48.408;9.968;2023-04-19T07:13:55;20.90;75.70
28071;DHT22;15383;48.408;9.968;2023-04-19T07:16:21;20.90;75.40
28071;DHT22;15383;48.408;9.968;2023-04-19T07:18:47;20.90;75.20
28071;DHT22;15383;48.408;9.968;2023-04-19T07:21:12;20.80;75.40
28071;DHT22;15383;48.408;9.968;2023-04-19T07:23:38;20.80;75.50
28071;DHT22;15383;48.408;9.968;2023-04-19T07:26:03;20.80;75.80
28071;DHT22;15383;48.408;9.968;2023-04-19T07:28:29;20.80;75.70
28071;DHT22;15383;48.408;9.968;2023-04-19T07:30:55;20.80;75.80
28071;DHT22;15383;48.408;9.968;2023-04-19T07:33:22;20.80;75.70
28071;DHT22;15383;48.408;9.968;2023-04-19T07:35:47;20.70;75.90
28071;DHT22;15383;48.408;9.968;2023-04-19T07:38:13;20.80;76.20
28071;DHT22;15383;48.408;9.968;2023-04-19T07:40:38;20.80;76.20
28071;DHT22;15383;48.408;9.968;2023-04-19T07:43:04;20.80;76.10
28071;DHT22;15383;48.408;9.968;2023-04-19T07:45:31;20.80;76.10
28071;DHT22;15383;48.408;9.968;2023-04-19T07:47:56;20.80;76.20
28071;DHT22;15383;48.408;9.968;2023-04-19T07:50:24;20.70;76.30
28071;DHT22;15383;48.408;9.968;2023-04-19T07:52:49;20.80;76.60
28071;DHT22;15383;48.408;9.968;2023-04-19T07:55:15;21.00;76.40
28071;DHT22;15383;48.408;9.968;2023-04-19T07:57:40;21.20;76.20
28071;DHT22;15383;48.408;9.968;2023-04-19T08:00:11;21.30;75.80
28071;DHT22;15383;48.408;9.968;2023-04-19T08:02:37;21.50;75.90
28071;DHT22;15383;48.408;9.968;2023-04-19T08:05:03;21.50;75.80
28071;DHT22;15383;48.408;9.968;2023-04-19T08:07:29;21.60;75.70
28071;DHT22;15383;48.408;9.968;2023-04-19T08:09:55;21.70;75.80
28071;DHT22;15383;48.408;9.968;2023-04-19T08:12:20;21.70;75.90
28071;DHT22;15383;48.408;9.968;2023-04-19T08:14:46;21.80;75.90
28071;DHT22;15383;48.408;9.968;2023-04-19T08:17:13;21.80;75.80
28071;DHT22;15383;48.408;9.968;2023-04-19T08:19:40;21.90;76.00
28071;DHT22;15383;48.408;9.968;2023-04-19T08:22:06;21.90;75.90
28071;DHT22;15383;48.408;9.968;2023-04-19T08:24:31;21.90;76.10
28071;DHT22;15383;48.408;9.968;2023-04-19T08:26:57;21.90;76.30
28071;DHT22;15383;48.408;9.968;2023-04-19T08:29:22;21.90;76.00
28071;DHT22;15383;48.408;9.968;2023-04-19T08:31:48;21.90;76.10
28071;DHT22;15383;48.408;9.968;2023-04-19T08:34:14;22.00;76.20
28071;DHT22;15383;48.408;9.968;2023-04-19T08:36:39;22.10;76.40
28071;DHT22;15383;48.408;9.968;2023-04-19T08:39:05;22.10;75.90
28071;DHT22;15383;48.408;9.968;2023-04-19T08:41:31;21.90;75.60
28071;DHT22;15383;48.408;9.968;2023-04-19T08:43:57;21.90;75.70
28071;DHT22;15383;48.408;9.968;2023-04-19T08:46:23;22.00;75.60
28071;DHT22;15383;48.408;9.968;2023-04-19T08:48:49;22.00;75.40
28071;DHT22;15383;48.408;9.968;2023-04-19T08:51:16;22.00;75.50
28071;DHT22;15383;48.408;9.968;2023-04-19T08:53:43;21.90;73.20
28071;DHT22;15383;48.408;9.968;2023-04-19T08:56:09;21.60;73.40
28071;DHT22;15383;48.408;9.968;2023-04-19T08:58:35;21.50;74.30
28071;DHT22;15383;48.408;9.968;2023-04-19T09:01:03;21.40;74.50
28071;DHT22;15383;48.408;9.968;2023-04-19T09:03:29;21.50;74.60
28071;DHT22;15383;48.408;9.968;2023-04-19T09:05:54;21.40;74.90
28071;DHT22;15383;48.408;9.968;2023-04-19T09:08:25;21.50;75.20
28071;DHT22;15383;48.408;9.968;2023-04-19T09:10:59;21.50;74.90
28071;DHT22;15383;48.408;9.968;2023-04-19T09:13:26;21.40;74.40
28071;DHT22;15383;48.408;9.968;2023-04-19T09:15:52;21.40;74.60
28071;DHT22;15383;48.408;9.968;2023-04-19T09:18:18;21.30;74.70
28071;DHT22;15383;48.408;9.968;2023-04-19T09:20:44;21.30;74.80
28071;DHT22;15383;48.408;9.968;2023-04-19T09:23:15;21.30;75.40
28071;DHT22;15383;48.408;9.968;2023-04-19T09:25:55;21.40;75.10
28071;DHT22;15383;48.408;9.968;2023-04-19T09:28:22;21.40;74.80
28071;DHT22;15383;48.408;9.968;2023-04-19T09:30:48;21.30;74.80
28071;DHT22;15383;48.408;9.968;2023-04-19T09:33:34;21.30;75.00
28071;DHT22;15383;48.408;9.968;2023-04-19T09:36:00;21.20;75.00
28071;DHT22;15383;48.408;9.968;2023-04-19T09:38:26;21.20;75.00
28071;DHT22;15383;48.408;9.968;2023-04-19T09:40:52;21.20;75.20
28071;DHT22;15383;48.408;9.968;2023-04-19T09:43:29;21.20;75.00
28071;DHT22;15383;48.408;9.968;2023-04-19T09:45:54;21.30;75.30
28071;DHT22;15383;48.408;9.968;2023-04-19T09:48:22;21.30;75.30
28071;DHT22;15383;48.408;9.968;2023-04-19T09:51:01;21.30;75.10
28071;DHT22;15383;48.408;9.968;2023-04-19T09:53:28;21.20;75.10
28071;DHT22;15383;48.408;9.968;2023-04-19T09:55:54;21.20;75.30
28071;DHT22;15383;48.408;9.968;2023-04-19T09:58:20;21.20;75.40
28071;DHT22;15383;48.408;9.968;2023-04-19T10:00:47;21.10;75.50
28071;DHT22;15383;48.408;9.968;2023-04-19T10:03:15;21.10;75.50
28071;DHT22;15383;48.408;9.968;2023-04-19T10:05:42;21.10;75.70
28071;DHT22;15383;48.408;9.968;2023-04-19T10:08:10;21.10;75.60
28071;DHT22;15383;48.408;9.968;2023-04-19T10:10:36;21.10;75.70
28071;DHT22;15383;48.408;9.968;2023-04-19T10:13:03;21.10;75.70
28071;DHT22;15383;48.408;9.968;2023-04-19T10:15:31;21.10;75.90
28071;DHT22;15383;48.408;9.968;2023-04-19T10:17:57;21.10;75.70
28071;DHT22;15383;48.408;9.968;2023-04-19T10:20:28;21.20;75.60
28071;DHT22;15383;48.408;9.968;2023-04-19T10:22:56;21.20;75.50
28071;DHT22;15383;48.408;9.968;2023-04-19T10:25:28;21.20;75.80
28071;DHT22;15383;48.408;9.968;2023-04-19T10:27:56;21.10;75.40
28071;DHT22;15383;48.408;9.968;2023-04-19T10:30:23;21.10;75.60
28071;DHT22;15383;48.408;9.968;2023-04-19T10:32:59;21.10;75.70
28071;DHT22;15383;48.408;9.968;2023-04-19T10:35:36;21.10;75.70
28071;DHT22;15383;48.408;9.968;2023-04-19T10:38:09;21.10;75.80
28071;DHT22;15383;48.408;9.968;2023-04-19T10:43:22;21.00;75.90
28071;DHT22;15383;48.408;9.968;2023-04-19T10:45:48;21.00;76.10
28071;DHT22;15383;48.408;9.968;2023-04-19T10:51:10;21.00;76.10
28071;DHT22;15383;48.408;9.968;2023-04-19T10:53:45;21.00;76.10
28071;DHT22;15383;48.408;9.968;2023-04-19T10:56:11;21.00;76.00
28071;DHT22;15383;48.408;9.968;2023-04-19T11:04:11;20.90;76.10
28071;DHT22;15383;48.408;9.968;2023-04-19T11:06:59;21.00;76.20
28071;DHT22;15383;48.408;9.968;2023-04-19T11:12:05;21.00;77.00
28071;DHT22;15383;48.408;9.968;2023-04-19T11:17:33;21.10;76.00
28071;DHT22;15383;48.408;9.968;2023-04-19T11:20:07;21.10;76.00
28071;DHT22;15383;48.408;9.968;2023-04-19T11:22:38;21.10;76.50
28071;DHT22;15383;48.408;9.968;2023-04-19T11:25:18;21.10;77.30
28071;DHT22;15383;48.408;9.968;2023-04-19T11:27:49;21.20;77.00
28071;DHT22;15383;48.408;9.968;2023-04-19T11:30:15;21.40;77.30
28071;DHT22;15383;48.408;9.968;2023-04-19T11:35:18;21.40;76.90
28071;DHT22;15383;48.408;9.968;2023-04-19T11:37:45;21.50;76.80
28071;DHT22;15383;48.408;9.968;2023-04-19T11:40:14;21.40;75.90
28071;DHT22;15383;48.408;9.968;2023-04-19T11:42:40;21.30;76.00
28071;DHT22;15383;48.408;9.968;2023-04-19T11:45:07;21.30;76.20
28071;DHT22;15383;48.408;9.968;2023-04-19T11:47:33;21.20;76.60
28071;DHT22;15383;48.408;9.968;2023-04-19T11:55:50;21.10;76.60
28071;DHT22;15383;48.408;9.968;2023-04-19T11:58:31;21.10;76.60
28071;DHT22;15383;48.408;9.968;2023-04-19T12:01:03;21.10;76.60
28071;DHT22;15383;48.408;9.968;2023-04-19T12:03:31;21.10;76.60
28071;DHT22;15383;48.408;9.968;2023-04-19T12:05:59;21.10;76.50
28071;DHT22;15383;48.408;9.968;2023-04-19T12:08:35;21.00;76.50
28071;DHT22;15383;48.408;9.968;2023-04-19T12:11:03;21.00;76.50
28071;DHT22;15383;48.408;9.968;2023-04-19T12:13:29;21.10;76.30
28071;DHT22;15383;48.408;9.968;2023-04-19T12:15:58;21.10;76.50
28071;DHT22;15383;48.408;9.968;2023-04-19T12:18:24;21.10;76.00
28071;DHT22;15383;48.408;9.968;2023-04-19T12:20:51;21.00;76.20
28071;DHT22;15383;48.408;9.968;2023-04-19T12:23:18;21.00;77.80
28071;DHT22;15383;48.408;9.968;2023-04-19T12:25:45;21.10;76.50
28071;DHT22;15383;48.408;9.968;2023-04-19T12:28:12;21.10;76.40
28071;DHT22;15383;48.408;9.968;2023-04-19T12:30:38;21.20;76.30
28071;DHT22;15383;48.408;9.968;2023-04-19T12:33:05;21.10;76.20
28071;DHT22;15383;48.408;9.968;2023-04-19T12:35:31;21.10;76.30
28071;DHT22;15383;48.408;9.968;2023-04-19T12:37:58;21.00;76.40
28071;DHT22;15383;48.408;9.968;2023-04-19T12:40:25;21.00;76.50
28071;DHT22;15383;48.408;9.968;2023-04-19T12:42:51;21.00;76.70
28071;DHT22;15383;48.408;9.968;2023-04-19T12:45:18;21.10;76.60
28071;DHT22;15383;48.408;9.968;2023-04-19T12:47:45;21.10;76.70
28071;DHT22;15383;48.408;9.968;2023-04-19T12:50:12;21.10;76.70
28071;DHT22;15383;48.408;9.968;2023-04-19T12:52:38;21.10;76.70
28071;DHT22;15383;48.408;9.968;2023-04-19T12:55:05;21.10;76.70
28071;DHT22;15383;48.408;9.968;2023-04-19T12:57:31;21.10;76.60
28071;DHT22;15383;48.408;9.968;2023-04-19T12:59:56;21.10;76.50
28071;DHT22;15383;48.408;9.968;2023-04-19T13:02:22;21.10;76.60
28071;DHT22;15383;48.408;9.968;2023-04-19T13:04:47;21.10;76.50
28071;DHT22;15383;48.408;9.968;2023-04-19T13:07:13;21.10;76.20
28071;DHT22;15383;48.408;9.968;2023-04-19T13:09:39;21.10;75.90
28071;DHT22;15383;48.408;9.968;2023-04-19T13:12:05;21.10;75.80
28071;DHT22;15383;48.408;9.968;2023-04-19T13:14:30;21.10;75.70
28071;DHT22;15383;48.408;9.968;2023-04-19T13:16:56;21.10;75.70
28071;DHT22;15383;48.408;9.968;2023-04-19T13:19:22;21.10;75.70
28071;DHT22;15383;48.408;9.968;2023-04-19T13:21:47;21.20;75.70
28071;DHT22;15383;48.408;9.968;2023-04-19T13:24:13;21.10;76.20
28071;DHT22;15383;48.408;9.968;2023-04-19T13:26:39;21.10;76.20
28071;DHT22;15383;48.408;9.968;2023-04-19T13:29:05;21.20;76.10
28071;DHT22;15383;48.408;9.968;2023-04-19T13:31:33;21.10;75.80
28071;DHT22;15383;48.408;9.968;2023-04-19T13:33:59;21.20;75.80
28071;DHT22;15383;48.408;9.968;2023-04-19T13:36:24;21.10;75.30
28071;DHT22;15383;48.408;9.968;2023-04-19T13:38:51;21.10;75.40
28071;DHT22;15383;48.408;9.968;2023-04-19T13:41:17;21.10;73.00
28071;DHT22;15383;48.408;9.968;2023-04-19T13:43:42;21.10;70.80
28071;DHT22;15383;48.408;9.968;2023-04-19T13:46:08;21.00;69.90
28071;DHT22;15383;48.408;9.968;2023-04-19T13:48:34;20.90;73.40
28071;DHT22;15383;48.408;9.968;2023-04-19T13:51:00;20.90;74.50
28071;DHT22;15383;48.408;9.968;2023-04-19T13:53:26;20.90;74.50
28071;DHT22;15383;48.408;9.968;2023-04-19T13:55:53;21.00;74.40
28071;DHT22;15383;48.408;9.968;2023-04-19T13:58:19;21.00;74.30
28071;DHT22;15383;48.408;9.968;2023-04-19T14:00:44;21.00;74.10
28071;DHT22;15383;48.408;9.968;2023-04-19T14:03:10;21.00;74.10
28071;DHT22;15383;48.408;9.968;2023-04-19T14:05:36;21.00;74.10
28071;DHT22;15383;48.408;9.968;2023-04-19T14:08:02;21.00;74.10
28071;DHT22;15383;48.408;9.968;2023-04-19T14:10:27;21.00;74.30
28071;DHT22;15383;48.408;9.968;2023-04-19T14:12:53;21.00;74.30
28071;DHT22;15383;48.408;9.968;2023-04-19T14:15:19;21.00;74.30
28071;DHT22;15383;48.408;9.968;2023-04-19T14:17:45;21.00;74.20
28071;DHT22;15383;48.408;9.968;2023-04-19T14:20:11;21.00;74.20
28071;DHT22;15383;48.408;9.968;2023-04-19T14:22:37;21.00;74.20
28071;DHT22;15383;48.408;9.968;2023-04-19T14:25:03;21.00;74.10
28071;DHT22;15383;48.408;9.968;2023-04-19T14:27:29;21.10;74.30
28071;DHT22;15383;48.408;9.968;2023-04-19T14:29:55;21.10;74.20
28071;DHT22;15383;48.408;9.968;2023-04-19T14:32:20;21.10;74.30
28071;DHT22;15383;48.408;9.968;2023-04-19T14:34:46;21.10;74.30
28071;DHT22;15383;48.408;9.968;2023-04-19T14:37:12;21.10;74.30
28071;DHT22;15383;48.408;9.968;2023-04-19T14:39:39;21.10;74.30
28071;DHT22;15383;48.408;9.968;2023-04-19T14:42:05;21.10;74.40
28071;DHT22;15383;48.408;9.968;2023-04-19T14:44:31;21.10;74.20
28071;DHT22;15383;48.408;9.968;2023-04-19T14:46:56;21.10;74.30
28071;DHT22;15383;48.408;9.968;2023-04-19T14:49:22;21.10;74.20
28071;DHT22;15383;48.408;9.968;2023-04-19T14:51:47;21.10;74.40
28071;DHT22;15383;48.408;9.968;2023-04-19T14:54:13;21.10;74.40
28071;DHT22;15383;48.408;9.968;2023-04-19T14:56:39;21.10;74.40
28071;DHT22;15383;48.408;9.968;2023-04-19T14:59:05;21.10;74.30
28071;DHT22;15383;48.408;9.968;2023-04-19T15:01:32;21.10;74.30
28071;DHT22;15383;48.408;9.968;2023-04-19T15:03:58;21.10;74.30
28071;DHT22;15383;48.408;9.968;2023-04-19T15:06:24;21.10;74.30
28071;DHT22;15383;48.408;9.968;2023-04-19T15:08:49;21.10;74.30
28071;DHT22;15383;48.408;9.968;2023-04-19T15:11:15;21.10;74.10
28071;DHT22;15383;48.408;9.968;2023-04-19T15:13:41;21.10;74.10
28071;DHT22;15383;48.408;9.968;2023-04-19T15:16:07;21.10;74.10
28071;DHT22;15383;48.408;9.968;2023-04-19T15:18:33;21.10;74.10
28071;DHT22;15383;48.408;9.968;2023-04-19T15:20:59;21.10;74.10
28071;DHT22;15383;48.408;9.968;2023-04-19T15:23:24;21.10;74.10
28071;DHT22;15383;48.408;9.968;2023-04-19T15:25:51;21.10;74.00
28071;DHT22;15383;48.408;9.968;2023-04-19T15:28:16;21.20;74.00
28071;DHT22;15383;48.408;9.968;2023-04-19T15:30:42;21.10;73.90
28071;DHT22;15383;48.408;9.968;2023-04-19T15:33:07;21.20;73.90
28071;DHT22;15383;48.408;9.968;2023-04-19T15:35:33;21.20;73.80
28071;DHT22;15383;48.408;9.968;2023-04-19T15:37:59;21.10;74.30
28071;DHT22;15383;48.408;9.968;2023-04-19T15:40:25;21.10;74.20
28071;DHT22;15383;48.408;9.968;2023-04-19T15:42:52;21.10;74.20
28071;DHT22;15383;48.408;9.968;2023-04-19T15:45:18;21.10;74.30
28071;DHT22;15383;48.408;9.968;2023-04-19T15:47:43;21.10;74.40
28071;DHT22;15383;48.408;9.968;2023-04-19T15:50:09;21.10;74.70